createdAt,value
2022-12-03T00:00:15.163Z,43.60
2022-12-03T00:01:15.059Z,40.00
2022-12-03T00:02:15.108Z,40.40
2022-12-03T00:03:15.012Z,39.40
2022-12-03T00:04:14.809Z,40.40
2022-12-03T00:05:14.990Z,42.30
2022-12-03T00:06:15.334Z,39.90
2022-12-03T00:07:18.046Z,40.60
2022-12-03T00:08:16.370Z,41.10
2022-12-03T00:09:14.940Z,42.40
2022-12-03T00:10:14.879Z,42.20
2022-12-03T00:11:17.130Z,44.50
2022-12-03T00:12:16.603Z,41.50
2022-12-03T00:13:14.932Z,42.40
2022-12-03T00:14:14.833Z,43.70
2022-12-03T00:15:17.362Z,43.10
2022-12-03T00:16:22.686Z,42.80
2022-12-03T00:17:15.139Z,43.30
2022-12-03T00:18:15.760Z,45.00
2022-12-03T00:19:14.980Z,45.00
2022-12-03T00:20:16.008Z,42.60
2022-12-03T00:21:14.720Z,43.70
2022-12-03T00:22:14.936Z,43.50
2022-12-03T00:23:15.589Z,43.10
2022-12-03T00:24:22.074Z,43.40
2022-12-03T00:25:14.923Z,45.30
2022-12-03T00:26:17.445Z,43.90
2022-12-03T00:27:15.146Z,44.90
2022-12-03T00:28:29.385Z,43.10
2022-12-03T00:29:14.957Z,42.10
2022-12-03T00:30:15.779Z,43.90
2022-12-03T00:31:14.797Z,44.90
2022-12-03T00:32:15.003Z,43.30
2022-12-03T00:33:14.770Z,47.00
2022-12-03T00:34:25.483Z,46.10
2022-12-03T00:35:14.672Z,47.30
2022-12-03T00:36:15.267Z,48.30
2022-12-03T00:37:14.383Z,47.40
2022-12-03T00:38:17.630Z,46.30
2022-12-03T00:39:14.604Z,48.50
2022-12-03T00:40:15.157Z,49.30
2022-12-03T00:41:16.459Z,48.40
2022-12-03T00:42:38.899Z,46.20
2022-12-03T00:43:17.352Z,44.30
2022-12-03T00:44:15.544Z,48.40
2022-12-03T00:45:18.033Z,49.00
2022-12-03T00:46:19.693Z,49.30
2022-12-03T00:47:20.611Z,49.10
2022-12-03T00:48:14.569Z,47.20
2022-12-03T00:49:15.692Z,47.10
2022-12-03T00:50:17.127Z,44.80
2022-12-03T00:51:14.580Z,49.30
2022-12-03T00:52:14.385Z,46.10
2022-12-03T00:53:16.963Z,46.00
2022-12-03T00:54:14.711Z,44.40
2022-12-03T00:55:14.302Z,44.50
2022-12-03T00:56:14.329Z,42.60
2022-12-03T00:57:17.806Z,44.60
2022-12-03T00:58:15.542Z,43.90
2022-12-03T00:59:16.078Z,46.10
2022-12-03T01:00:15.435Z,46.90
2022-12-03T01:01:14.686Z,42.40
2022-12-03T01:02:17.722Z,47.80
2022-12-03T01:03:14.106Z,48.10
2022-12-03T01:04:36.697Z,47.20
2022-12-03T01:05:17.849Z,49.50
2022-12-03T01:06:14.065Z,46.70
2022-12-03T01:07:22.881Z,43.00
2022-12-03T01:08:23.797Z,43.60
2022-12-03T01:09:14.815Z,44.60
2022-12-03T01:10:14.060Z,39.60
2022-12-03T01:11:14.214Z,41.80
2022-12-03T01:12:14.523Z,41.60
2022-12-03T01:13:13.999Z,41.70
2022-12-03T01:14:14.430Z,40.80
2022-12-03T01:15:14.495Z,43.00
2022-12-03T01:16:17.620Z,43.30
2022-12-03T01:17:13.946Z,43.50
2022-12-03T01:18:15.178Z,43.50
2022-12-03T01:19:22.527Z,43.50
2022-12-03T01:20:16.322Z,46.70
2022-12-03T01:21:14.389Z,47.70
2022-12-03T01:22:16.722Z,44.40
2022-12-03T01:23:15.052Z,44.70
2022-12-03T01:24:14.804Z,47.10
2022-12-03T01:25:14.622Z,42.90
2022-12-03T01:26:21.308Z,46.70
2022-12-03T01:27:14.915Z,44.70
2022-12-03T01:28:17.403Z,48.30
2022-12-03T01:29:16.016Z,44.60
2022-12-03T01:30:15.163Z,45.90
2022-12-03T01:31:13.826Z,42.80
2022-12-03T01:33:23.550Z,40.10
2022-12-03T01:34:23.542Z,41.70
2022-12-03T01:35:23.494Z,43.10
2022-12-03T01:36:23.531Z,45.60
2022-12-03T01:37:23.535Z,43.70
2022-12-03T01:38:23.507Z,43.30
2022-12-03T01:39:23.459Z,43.30
2022-12-03T01:40:23.454Z,44.50
2022-12-03T01:41:23.425Z,44.20
2022-12-03T01:42:23.470Z,42.70
2022-12-03T01:43:23.416Z,44.70
2022-12-03T01:44:23.390Z,43.40
2022-12-03T01:45:23.399Z,43.40
2022-12-03T01:46:23.473Z,42.30
2022-12-03T01:47:23.364Z,46.20
2022-12-03T01:48:23.361Z,46.90
2022-12-03T01:49:23.357Z,44.40
2022-12-03T01:50:23.335Z,44.30
2022-12-03T01:51:23.366Z,45.60
2022-12-03T01:52:23.302Z,45.70
2022-12-03T01:53:23.306Z,42.30
2022-12-03T01:54:23.305Z,47.20
2022-12-03T01:55:23.291Z,49.40
2022-12-03T01:56:23.295Z,48.70
2022-12-03T01:57:23.276Z,53.50
2022-12-03T01:58:23.235Z,51.50
2022-12-03T01:59:23.225Z,50.90
2022-12-03T02:00:23.220Z,48.50
2022-12-03T02:01:23.330Z,47.60
2022-12-03T02:02:23.233Z,46.20
2022-12-03T02:03:23.209Z,50.00
2022-12-03T02:04:23.198Z,49.60
2022-12-03T02:05:31.768Z,49.80
2022-12-03T02:06:23.164Z,51.00
2022-12-03T02:07:23.180Z,46.70
2022-12-03T02:08:23.131Z,50.60
2022-12-03T02:09:23.115Z,47.40
2022-12-03T02:10:23.120Z,48.10
2022-12-03T02:11:23.104Z,47.30
2022-12-03T02:12:23.100Z,53.70
2022-12-03T02:13:23.129Z,52.70
2022-12-03T02:14:23.055Z,49.70
2022-12-03T02:15:23.055Z,53.60
2022-12-03T02:16:23.177Z,51.00
2022-12-03T02:17:23.042Z,56.10
2022-12-03T02:18:23.010Z,54.10
2022-12-03T02:19:23.002Z,51.50
2022-12-03T02:20:22.988Z,55.70
2022-12-03T02:21:23.020Z,53.70
2022-12-03T02:22:22.975Z,50.10
2022-12-03T02:23:22.981Z,52.60
2022-12-03T02:24:22.944Z,52.20
2022-12-03T02:25:22.939Z,54.80
2022-12-03T02:26:22.941Z,55.50
2022-12-03T02:27:22.952Z,52.40
2022-12-03T02:28:22.913Z,52.90
2022-12-03T02:29:22.919Z,54.60
2022-12-03T02:30:22.883Z,53.70
2022-12-03T02:31:23.012Z,61.30
2022-12-03T02:32:22.858Z,58.00
2022-12-03T02:33:22.863Z,55.70
2022-12-03T02:34:22.850Z,55.70
2022-12-03T02:35:22.846Z,49.70
2022-12-03T02:36:22.814Z,54.30
2022-12-03T02:37:22.800Z,50.50
2022-12-03T02:38:22.804Z,50.00
2022-12-03T02:39:22.828Z,53.90
2022-12-03T02:40:22.787Z,54.60
2022-12-03T02:41:22.759Z,50.20
2022-12-03T02:42:22.762Z,55.00
2022-12-03T02:43:22.737Z,48.50
2022-12-03T02:44:22.733Z,48.00
2022-12-03T02:45:22.788Z,51.30
2022-12-03T02:46:22.761Z,52.90
2022-12-03T02:47:22.691Z,46.40
2022-12-03T02:48:22.677Z,43.80
2022-12-03T02:49:22.681Z,46.50
2022-12-03T02:50:22.681Z,47.40
2022-12-03T02:51:22.680Z,44.50
2022-12-03T02:52:22.656Z,44.80
2022-12-03T02:53:22.673Z,49.30
2022-12-03T02:54:22.619Z,48.10
2022-12-03T02:55:22.605Z,50.40
2022-12-03T02:56:22.591Z,52.50
2022-12-03T02:57:22.604Z,52.40
2022-12-03T02:58:22.587Z,51.20
2022-12-03T02:59:22.564Z,52.60
2022-12-03T03:00:22.546Z,55.00
2022-12-03T03:01:22.644Z,52.00
2022-12-03T03:02:22.614Z,48.20
2022-12-03T03:03:22.544Z,48.30
2022-12-03T03:04:22.502Z,44.20
2022-12-03T03:05:22.493Z,44.80
2022-12-03T03:06:22.478Z,43.30
2022-12-03T03:07:22.480Z,40.90
2022-12-03T03:08:22.464Z,38.90
2022-12-03T03:09:22.488Z,41.30
2022-12-03T03:10:22.439Z,40.60
2022-12-03T03:11:22.424Z,39.60
2022-12-03T03:12:22.416Z,45.30
2022-12-03T03:13:22.402Z,44.20
2022-12-03T03:14:22.425Z,46.60
2022-12-03T03:15:22.416Z,44.30
2022-12-03T03:16:22.456Z,49.50
2022-12-03T03:17:22.357Z,53.80
2022-12-03T03:18:22.349Z,48.00
2022-12-03T03:19:22.368Z,45.60
2022-12-03T03:20:22.344Z,46.10
2022-12-03T03:21:22.362Z,49.10
2022-12-03T03:22:22.302Z,43.80
2022-12-03T03:23:22.290Z,50.00
2022-12-03T03:24:22.289Z,46.30
2022-12-03T03:25:22.292Z,45.90
2022-12-03T03:26:22.294Z,45.40
2022-12-03T03:27:22.288Z,45.80
2022-12-03T03:28:22.236Z,48.20
2022-12-03T03:29:22.225Z,47.00
2022-12-03T03:30:22.230Z,52.10
2022-12-03T03:31:22.340Z,50.50
2022-12-03T03:32:22.219Z,45.70
2022-12-03T03:33:22.258Z,46.30
2022-12-03T03:34:22.169Z,47.10
2022-12-03T03:35:22.161Z,44.50
2022-12-03T03:36:22.176Z,49.60
2022-12-03T03:37:22.154Z,50.50
2022-12-03T03:38:22.125Z,47.60
2022-12-03T03:39:22.177Z,48.70
2022-12-03T03:40:22.102Z,44.40
2022-12-03T03:41:22.103Z,47.00
2022-12-03T03:42:22.098Z,48.90
2022-12-03T03:43:22.091Z,47.40
2022-12-03T03:44:22.057Z,47.80
2022-12-03T03:45:27.318Z,44.70
2022-12-03T03:46:23.153Z,46.90
2022-12-03T03:47:22.027Z,49.70
2022-12-03T03:48:22.018Z,47.10
2022-12-03T03:49:22.030Z,50.30
2022-12-03T03:50:22.037Z,45.00
2022-12-03T03:51:21.981Z,43.20
2022-12-03T03:52:21.972Z,41.20
2022-12-03T03:53:21.987Z,46.40
2022-12-03T03:54:21.956Z,42.80
2022-12-03T03:55:21.953Z,42.50
2022-12-03T03:56:21.976Z,44.90
2022-12-03T03:57:21.914Z,46.10
2022-12-03T03:58:21.902Z,48.70
2022-12-03T03:59:21.893Z,52.00
2022-12-03T04:00:21.901Z,48.60
2022-12-03T04:01:21.955Z,52.90
2022-12-03T04:02:21.904Z,51.20
2022-12-03T04:03:21.848Z,54.20
2022-12-03T04:04:21.967Z,55.60
2022-12-03T04:05:21.831Z,54.20
2022-12-03T04:06:21.835Z,53.70
2022-12-03T04:07:21.804Z,56.30
2022-12-03T04:08:21.844Z,58.20
2022-12-03T04:09:21.782Z,54.90
2022-12-03T04:10:21.776Z,48.00
2022-12-03T04:11:21.778Z,49.00
2022-12-03T04:12:21.758Z,44.40
2022-12-03T04:13:21.740Z,42.90
2022-12-03T04:14:21.778Z,43.50
2022-12-03T04:15:21.720Z,39.70
2022-12-03T04:16:21.749Z,41.40
2022-12-03T04:17:21.710Z,42.40
2022-12-03T04:18:21.699Z,41.40
2022-12-03T04:19:21.701Z,38.80
2022-12-03T04:20:21.675Z,41.00
2022-12-03T04:21:21.656Z,45.10
2022-12-03T04:22:21.640Z,45.40
2022-12-03T04:23:24.956Z,45.80
2022-12-03T04:24:22.632Z,46.20
2022-12-03T04:25:21.604Z,42.90
2022-12-03T04:26:21.619Z,40.20
2022-12-03T04:27:21.589Z,41.50
2022-12-03T04:28:21.574Z,39.10
2022-12-03T04:29:21.581Z,40.60
2022-12-03T04:30:21.593Z,41.00
2022-12-03T04:31:21.645Z,42.50
2022-12-03T04:32:21.541Z,41.50
2022-12-03T04:33:21.524Z,42.40
2022-12-03T04:34:21.531Z,42.90
2022-12-03T04:35:21.603Z,42.50
2022-12-03T04:36:21.514Z,38.90
2022-12-03T04:37:21.477Z,37.40
2022-12-03T04:38:21.481Z,42.40
2022-12-03T04:39:21.462Z,40.40
2022-12-03T04:40:21.455Z,41.10
2022-12-03T04:41:21.442Z,42.00
2022-12-03T04:42:21.419Z,40.30
2022-12-03T04:43:21.422Z,41.90
2022-12-03T04:44:21.422Z,42.30
2022-12-03T04:45:21.416Z,45.10
2022-12-03T04:46:21.536Z,43.40
2022-12-03T04:47:21.383Z,42.10
2022-12-03T04:48:21.350Z,44.90
2022-12-03T04:49:21.343Z,43.50
2022-12-03T04:50:21.367Z,40.20
2022-12-03T04:51:21.324Z,44.70
2022-12-03T04:52:21.333Z,43.30
2022-12-03T04:53:21.303Z,47.20
2022-12-03T04:54:21.303Z,47.40
2022-12-03T04:55:21.276Z,50.70
2022-12-03T04:56:21.286Z,44.70
2022-12-03T04:57:21.293Z,47.00
2022-12-03T04:58:21.252Z,52.80
2022-12-03T04:59:21.232Z,50.20
2022-12-03T05:00:21.222Z,52.80
2022-12-03T05:01:21.235Z,48.80
2022-12-03T05:02:21.276Z,49.30
2022-12-03T05:03:21.201Z,50.30
2022-12-03T05:04:21.190Z,49.10
2022-12-03T05:05:21.164Z,46.90
2022-12-03T05:06:21.200Z,46.00
2022-12-03T05:07:21.145Z,44.60
2022-12-03T05:08:21.161Z,49.20
2022-12-03T05:09:21.146Z,49.10
2022-12-03T05:10:21.123Z,52.60
2022-12-03T05:11:21.097Z,48.50
2022-12-03T05:12:21.093Z,49.10
2022-12-03T05:13:21.076Z,46.50
2022-12-03T05:14:21.070Z,49.30
2022-12-03T05:15:21.087Z,51.90
2022-12-03T05:16:21.166Z,50.00
2022-12-03T05:17:21.032Z,52.30
2022-12-03T05:18:21.018Z,49.40
2022-12-03T05:19:21.016Z,51.20
2022-12-03T05:20:21.008Z,53.10
2022-12-03T05:21:21.035Z,57.90
2022-12-03T05:22:21.031Z,50.90
2022-12-03T05:23:20.966Z,55.70
2022-12-03T05:24:20.953Z,56.50
2022-12-03T05:25:20.949Z,55.80
2022-12-03T05:26:20.947Z,54.70
2022-12-03T05:27:23.963Z,54.60
2022-12-03T05:28:20.942Z,50.70
2022-12-03T05:29:20.899Z,52.70
2022-12-03T05:30:20.899Z,52.50
2022-12-03T05:31:21.018Z,54.90
2022-12-03T05:32:20.895Z,51.90
2022-12-03T05:33:20.906Z,55.00
2022-12-03T05:34:20.842Z,50.80
2022-12-03T05:35:20.832Z,50.40
2022-12-03T05:36:20.823Z,47.30
2022-12-03T05:37:20.825Z,52.90
2022-12-03T05:38:20.840Z,49.00
2022-12-03T05:39:20.814Z,46.00
2022-12-03T05:40:20.785Z,45.20
2022-12-03T05:41:20.796Z,46.40
2022-12-03T05:42:20.782Z,41.50
2022-12-03T05:43:20.762Z,40.20
2022-12-03T05:44:20.971Z,41.20
2022-12-03T05:45:20.765Z,36.90
2022-12-03T05:46:20.801Z,40.20
2022-12-03T05:47:20.712Z,50.50
2022-12-03T05:48:20.720Z,45.40
2022-12-03T05:49:20.700Z,49.10
2022-12-03T05:50:20.684Z,48.50
2022-12-03T05:51:20.703Z,40.70
2022-12-03T05:52:20.661Z,42.20
2022-12-03T05:53:20.632Z,39.20
2022-12-03T05:54:20.676Z,37.60
2022-12-03T05:55:20.633Z,35.90
2022-12-03T05:56:20.615Z,38.10
2022-12-03T05:57:20.621Z,37.00
2022-12-03T05:58:20.578Z,36.10
2022-12-03T05:59:20.598Z,34.50
2022-12-03T06:00:20.566Z,34.80
2022-12-03T06:01:20.571Z,36.60
2022-12-03T06:02:20.710Z,37.40
2022-12-03T06:03:20.792Z,36.00
2022-12-03T06:04:20.512Z,35.60
2022-12-03T06:05:20.528Z,36.20
2022-12-03T06:06:20.505Z,36.70
2022-12-03T06:07:20.487Z,37.30
2022-12-03T06:08:20.467Z,34.30
2022-12-03T06:09:20.476Z,33.20
2022-12-03T06:10:20.477Z,31.80
2022-12-03T06:11:20.443Z,35.30
2022-12-03T06:12:20.432Z,36.10
2022-12-03T06:13:20.433Z,38.60
2022-12-03T06:14:20.401Z,40.70
2022-12-03T06:15:20.450Z,39.40
2022-12-03T06:16:20.404Z,39.10
2022-12-03T06:17:20.380Z,43.50
2022-12-03T06:18:20.388Z,41.90
2022-12-03T06:19:20.359Z,40.90
2022-12-03T06:20:20.358Z,41.80
2022-12-03T06:21:20.374Z,39.30
2022-12-03T06:22:20.340Z,39.50
2022-12-03T06:23:20.313Z,40.40
2022-12-03T06:24:20.321Z,36.60
2022-12-03T06:25:20.278Z,38.50
2022-12-03T06:26:20.285Z,43.40
2022-12-03T06:27:20.316Z,45.50
2022-12-03T06:28:20.255Z,39.40
2022-12-03T06:29:20.257Z,35.40
2022-12-03T06:30:20.250Z,36.20
2022-12-03T06:31:20.352Z,37.90
2022-12-03T06:32:20.203Z,38.20
2022-12-03T06:33:20.256Z,37.20
2022-12-03T06:34:20.190Z,40.60
2022-12-03T06:35:20.193Z,42.10
2022-12-03T06:36:23.156Z,38.20
2022-12-03T06:37:20.182Z,38.80
2022-12-03T06:38:20.135Z,40.10
2022-12-03T06:39:20.138Z,44.10
2022-12-03T06:40:20.148Z,45.50
2022-12-03T06:41:20.133Z,41.10
2022-12-03T06:42:20.108Z,45.50
2022-12-03T06:43:20.087Z,41.10
2022-12-03T06:44:20.075Z,42.70
2022-12-03T06:45:20.100Z,43.50
2022-12-03T06:46:20.166Z,42.10
2022-12-03T06:47:20.051Z,46.10
2022-12-03T06:48:20.043Z,48.10
2022-12-03T06:49:20.012Z,45.70
2022-12-03T06:50:20.001Z,44.20
2022-12-03T06:51:20.027Z,51.70
2022-12-03T06:52:20.033Z,44.60
2022-12-03T06:53:19.990Z,43.20
2022-12-03T06:54:19.960Z,46.00
2022-12-03T06:55:19.946Z,45.00
2022-12-03T06:56:22.284Z,47.50
2022-12-03T06:57:19.956Z,45.70
2022-12-03T06:58:19.962Z,44.10
2022-12-03T06:59:19.912Z,46.30
2022-12-03T07:00:19.922Z,45.80
2022-12-03T07:01:20.915Z,47.00
2022-12-03T07:02:19.870Z,42.80
2022-12-03T07:03:20.016Z,41.80
2022-12-03T07:04:19.858Z,40.20
2022-12-03T07:05:19.882Z,42.80
2022-12-03T07:06:19.824Z,44.00
2022-12-03T07:07:19.812Z,42.90
2022-12-03T07:08:19.896Z,42.90
2022-12-03T07:09:19.802Z,44.30
2022-12-03T07:10:19.816Z,45.90
2022-12-03T07:11:19.787Z,40.60
2022-12-03T07:12:19.757Z,42.40
2022-12-03T07:13:19.768Z,44.20
2022-12-03T07:14:19.839Z,42.30
2022-12-03T07:15:19.775Z,41.60
2022-12-03T07:16:19.770Z,44.60
2022-12-03T07:17:19.715Z,42.50
2022-12-03T07:18:19.691Z,43.10
2022-12-03T07:19:19.680Z,40.40
2022-12-03T07:20:19.685Z,42.60
2022-12-03T07:21:19.704Z,47.40
2022-12-03T07:22:19.672Z,43.40
2022-12-03T07:23:19.636Z,41.70
2022-12-03T07:24:19.624Z,42.50
2022-12-03T07:25:23.047Z,40.80
2022-12-03T07:26:19.621Z,38.60
2022-12-03T07:27:19.654Z,38.90
2022-12-03T07:28:19.603Z,36.90
2022-12-03T07:29:19.573Z,39.00
2022-12-03T07:30:19.579Z,39.80
2022-12-03T07:31:19.622Z,40.80
2022-12-03T07:32:19.539Z,41.80
2022-12-03T07:33:19.569Z,38.60
2022-12-03T07:34:19.534Z,41.40
2022-12-03T07:35:19.503Z,40.70
2022-12-03T07:36:19.492Z,37.90
2022-12-03T07:37:23.076Z,39.30
2022-12-03T07:38:19.496Z,40.40
2022-12-03T07:39:19.502Z,41.20
2022-12-03T07:40:19.446Z,40.20
2022-12-03T07:41:19.437Z,41.90
2022-12-03T07:42:19.453Z,38.00
2022-12-03T07:43:19.428Z,39.60
2022-12-03T07:44:19.412Z,38.40
2022-12-03T07:45:19.429Z,35.30
2022-12-03T07:46:19.439Z,36.40
2022-12-03T07:47:19.394Z,35.80
2022-12-03T07:48:19.358Z,37.80
2022-12-03T07:49:19.345Z,38.30
2022-12-03T07:50:19.441Z,39.10
2022-12-03T07:51:19.365Z,42.40
2022-12-03T07:52:19.315Z,41.50
2022-12-03T07:53:19.306Z,40.60
2022-12-03T07:54:19.330Z,38.10
2022-12-03T07:55:19.288Z,37.70
2022-12-03T07:56:19.287Z,35.30
2022-12-03T07:57:19.292Z,35.30
2022-12-03T07:58:19.245Z,33.50
2022-12-03T07:59:19.233Z,36.70
2022-12-03T08:00:19.238Z,32.70
2022-12-03T08:01:19.324Z,36.60
2022-12-03T08:02:21.636Z,36.10
2022-12-03T08:03:19.221Z,35.50
2022-12-03T08:04:19.179Z,35.40
2022-12-03T08:05:19.169Z,33.20
2022-12-03T08:06:19.177Z,36.50
2022-12-03T08:07:19.155Z,33.80
2022-12-03T08:08:19.200Z,36.10
2022-12-03T08:09:19.173Z,38.40
2022-12-03T08:10:19.116Z,33.50
2022-12-03T08:11:19.120Z,32.60
2022-12-03T08:12:19.090Z,32.50
2022-12-03T08:13:19.094Z,35.00
2022-12-03T08:14:19.091Z,32.00
2022-12-03T08:15:19.074Z,30.80
2022-12-03T08:16:19.179Z,32.30
2022-12-03T08:17:19.081Z,31.40
2022-12-03T08:18:19.040Z,32.50
2022-12-03T08:19:19.020Z,30.70
2022-12-03T08:20:19.002Z,30.80
2022-12-03T08:21:19.059Z,33.30
2022-12-03T08:22:18.981Z,31.80
2022-12-03T08:23:18.987Z,32.10
2022-12-03T08:24:18.962Z,32.30
2022-12-03T08:25:18.956Z,33.40
2022-12-03T08:26:18.934Z,30.80
2022-12-03T08:27:18.969Z,34.90
2022-12-03T08:28:18.956Z,33.10
2022-12-03T08:29:18.939Z,35.20
2022-12-03T08:30:18.950Z,37.60
2022-12-03T08:31:18.939Z,33.80
2022-12-03T08:32:18.888Z,36.50
2022-12-03T08:33:18.878Z,34.70
2022-12-03T08:34:18.879Z,33.90
2022-12-03T08:35:18.868Z,35.20
2022-12-03T08:36:18.845Z,34.90
2022-12-03T08:37:18.809Z,36.90
2022-12-03T08:38:18.801Z,37.90
2022-12-03T08:39:18.793Z,37.00
2022-12-03T08:40:18.798Z,34.40
2022-12-03T08:41:18.772Z,38.20
2022-12-03T08:42:18.769Z,37.40
2022-12-03T08:43:18.742Z,36.00
2022-12-03T08:44:18.753Z,35.40
2022-12-03T08:45:18.746Z,35.80
2022-12-03T08:46:18.824Z,34.20
2022-12-03T08:47:18.709Z,33.70
2022-12-03T08:48:18.702Z,32.40
2022-12-03T08:49:18.675Z,36.30
2022-12-03T08:50:18.682Z,34.10
2022-12-03T08:51:18.681Z,35.00
2022-12-03T08:52:18.673Z,33.40
2022-12-03T08:53:18.650Z,35.70
2022-12-03T08:54:18.619Z,36.30
2022-12-03T08:55:18.623Z,34.80
2022-12-03T08:56:18.599Z,36.70
2022-12-03T08:57:18.625Z,38.10
2022-12-03T08:58:18.580Z,35.80
2022-12-03T08:59:18.574Z,37.70
2022-12-03T09:00:18.578Z,37.70
2022-12-03T09:01:18.675Z,38.70
2022-12-03T09:02:18.550Z,40.30
2022-12-03T09:03:18.550Z,42.30
2022-12-03T09:04:18.671Z,40.80
2022-12-03T09:05:18.516Z,36.70
2022-12-03T09:06:18.503Z,36.10
2022-12-03T09:07:18.508Z,37.20
2022-12-03T09:08:18.599Z,40.00
2022-12-03T09:09:18.498Z,34.90
2022-12-03T09:10:18.456Z,43.50
2022-12-03T09:11:18.460Z,41.40
2022-12-03T09:12:18.460Z,44.40
2022-12-03T09:13:18.414Z,49.00
2022-12-03T09:14:19.072Z,43.00
2022-12-03T09:15:18.412Z,34.40
2022-12-03T09:16:19.374Z,38.00
2022-12-03T09:17:18.405Z,38.30
2022-12-03T09:18:18.354Z,37.10
2022-12-03T09:19:18.347Z,37.90
2022-12-03T09:20:18.352Z,35.30
2022-12-03T09:21:18.345Z,34.80
2022-12-03T09:22:18.343Z,37.80
2022-12-03T09:23:18.333Z,34.10
2022-12-03T09:24:18.288Z,36.60
2022-12-03T09:25:18.280Z,33.30
2022-12-03T09:26:18.291Z,30.70
2022-12-03T09:27:18.291Z,36.00
2022-12-03T09:28:18.270Z,32.40
2022-12-03T09:29:18.229Z,32.40
2022-12-03T09:30:18.219Z,33.10
2022-12-03T09:31:18.282Z,29.50
2022-12-03T09:32:18.926Z,30.20
2022-12-03T09:33:18.205Z,28.30
2022-12-03T09:34:18.195Z,31.30
2022-12-03T09:35:18.167Z,28.00
2022-12-03T09:36:18.154Z,30.00
2022-12-03T09:37:18.173Z,27.10
2022-12-03T09:38:18.187Z,26.40
2022-12-03T09:39:18.125Z,26.00
2022-12-03T09:40:18.141Z,26.70
2022-12-03T09:41:18.095Z,29.40
2022-12-03T09:42:18.087Z,28.40
2022-12-03T09:43:18.096Z,29.50
2022-12-03T09:44:18.496Z,31.00
2022-12-03T09:45:18.088Z,30.10
2022-12-03T09:46:18.099Z,29.90
2022-12-03T09:47:18.046Z,32.30
2022-12-03T09:48:18.020Z,32.70
2022-12-03T09:49:18.030Z,34.60
2022-12-03T09:50:18.006Z,31.60
2022-12-03T09:51:18.012Z,34.00
2022-12-03T09:52:17.979Z,33.30
2022-12-03T09:53:17.962Z,33.00
2022-12-03T09:54:17.972Z,32.20
2022-12-03T09:55:17.977Z,33.40
2022-12-03T09:56:17.946Z,37.90
2022-12-03T09:57:17.966Z,44.60
2022-12-03T09:58:17.909Z,37.80
2022-12-03T09:59:17.896Z,32.70
2022-12-03T10:00:17.910Z,32.00
2022-12-03T10:01:18.040Z,31.70
2022-12-03T10:02:17.871Z,31.00
2022-12-03T10:03:17.899Z,31.90
2022-12-03T10:04:17.938Z,33.70
2022-12-03T10:05:17.843Z,34.10
2022-12-03T10:06:17.832Z,35.40
2022-12-03T10:07:17.855Z,35.90
2022-12-03T10:08:17.852Z,32.00
2022-12-03T10:09:17.850Z,30.70
2022-12-03T10:10:17.796Z,30.90
2022-12-03T10:11:17.764Z,32.00
2022-12-03T10:12:17.747Z,30.80
2022-12-03T10:13:21.026Z,32.30
2022-12-03T10:14:18.741Z,37.70
2022-12-03T10:15:17.786Z,34.10
2022-12-03T10:16:17.763Z,35.20
2022-12-03T10:17:17.768Z,34.60
2022-12-03T10:18:17.682Z,36.10
2022-12-03T10:19:17.690Z,34.70
2022-12-03T10:20:17.658Z,34.50
2022-12-03T10:21:17.670Z,34.40
2022-12-03T10:22:17.633Z,31.40
2022-12-03T10:23:17.639Z,31.70
2022-12-03T10:24:17.647Z,34.60
2022-12-03T10:25:17.623Z,40.50
2022-12-03T10:26:17.606Z,38.70
2022-12-03T10:27:17.631Z,31.70
2022-12-03T10:28:17.568Z,28.10
2022-12-03T10:29:17.556Z,28.60
2022-12-03T10:30:17.566Z,30.00
2022-12-03T10:31:17.605Z,32.30
2022-12-03T10:32:17.530Z,31.90
2022-12-03T10:33:19.052Z,31.20
2022-12-03T10:34:17.507Z,29.20
2022-12-03T10:35:17.490Z,29.20
2022-12-03T10:36:17.485Z,31.60
2022-12-03T10:37:17.482Z,30.70
2022-12-03T10:38:17.457Z,34.70
2022-12-03T10:39:17.472Z,34.20
2022-12-03T10:40:17.490Z,32.80
2022-12-03T10:41:17.428Z,34.10
2022-12-03T10:42:17.427Z,32.90
2022-12-03T10:43:17.427Z,26.60
2022-12-03T10:44:17.409Z,29.50
2022-12-03T10:45:17.399Z,29.80
2022-12-03T10:46:17.604Z,32.70
2022-12-03T10:47:17.566Z,35.60
2022-12-03T10:48:17.372Z,33.20
2022-12-03T10:49:17.331Z,37.30
2022-12-03T10:50:17.435Z,33.40
2022-12-03T10:51:17.334Z,30.40
2022-12-03T10:52:22.606Z,30.90
2022-12-03T10:53:18.316Z,32.90
2022-12-03T10:54:17.306Z,31.30
2022-12-03T10:55:17.273Z,35.30
2022-12-03T10:56:17.252Z,37.30
2022-12-03T10:57:17.270Z,36.60
2022-12-03T10:58:17.273Z,36.70
2022-12-03T10:59:17.232Z,33.50
2022-12-03T11:00:17.365Z,33.70
2022-12-03T11:01:17.286Z,35.60
2022-12-03T11:02:17.184Z,33.70
2022-12-03T11:03:17.287Z,37.20
2022-12-03T11:04:17.181Z,30.70
2022-12-03T11:05:17.170Z,30.10
2022-12-03T11:06:17.141Z,29.90
2022-12-03T11:07:17.143Z,29.00
2022-12-03T11:08:17.283Z,26.50
2022-12-03T11:09:17.106Z,28.70
2022-12-03T11:10:17.279Z,26.50
2022-12-03T11:11:17.087Z,26.20
2022-12-03T11:12:17.072Z,25.50
2022-12-03T11:13:17.062Z,27.70
2022-12-03T11:14:22.820Z,30.20
2022-12-03T11:15:18.056Z,29.90
2022-12-03T11:16:17.109Z,30.50
2022-12-03T11:17:17.017Z,33.90
2022-12-03T11:18:17.012Z,30.20
2022-12-03T11:19:17.021Z,30.30
2022-12-03T11:20:22.347Z,31.90
2022-12-03T11:21:18.004Z,30.60
2022-12-03T11:22:17.002Z,31.00
2022-12-03T11:23:16.950Z,32.70
2022-12-03T11:24:16.939Z,30.30
2022-12-03T11:25:16.959Z,33.00
2022-12-03T11:26:19.310Z,37.50
2022-12-03T11:27:16.921Z,33.70
2022-12-03T11:28:16.933Z,31.60
2022-12-03T11:29:16.883Z,26.90
2022-12-03T11:30:16.884Z,27.80
2022-12-03T11:31:16.976Z,28.40
2022-12-03T11:32:16.849Z,28.00
2022-12-03T11:33:16.847Z,27.90
2022-12-03T11:34:16.865Z,26.40
2022-12-03T11:35:16.822Z,27.00
2022-12-03T11:36:16.802Z,27.50
2022-12-03T11:37:16.814Z,28.40
2022-12-03T11:38:16.794Z,28.80
2022-12-03T11:39:16.781Z,31.70
2022-12-03T11:40:16.794Z,30.20
2022-12-03T11:41:16.746Z,28.70
2022-12-03T11:42:16.767Z,27.40
2022-12-03T11:43:16.723Z,29.50
2022-12-03T11:44:16.726Z,28.10
2022-12-03T11:45:16.723Z,27.90
2022-12-03T11:46:16.819Z,28.00
2022-12-03T11:47:16.678Z,29.10
2022-12-03T11:48:16.714Z,32.50
2022-12-03T11:49:16.657Z,35.30
2022-12-03T11:50:16.650Z,40.20
2022-12-03T11:51:16.635Z,32.10
2022-12-03T11:52:16.676Z,34.50
2022-12-03T11:53:16.641Z,35.90
2022-12-03T11:54:16.615Z,35.10
2022-12-03T11:55:16.596Z,34.80
2022-12-03T11:56:16.597Z,31.10
2022-12-03T11:57:16.566Z,30.90
2022-12-03T11:58:16.604Z,28.50
2022-12-03T11:59:16.546Z,33.20
2022-12-03T12:00:16.531Z,30.80
2022-12-03T12:01:16.540Z,33.00
2022-12-03T12:02:16.558Z,35.00
2022-12-03T12:03:16.662Z,28.30
2022-12-03T12:04:16.587Z,34.10
2022-12-03T12:05:16.484Z,31.20
2022-12-03T12:06:25.403Z,34.30
2022-12-03T12:07:16.459Z,34.70
2022-12-03T12:08:16.554Z,34.90
2022-12-03T12:09:16.431Z,35.70
2022-12-03T12:10:16.433Z,40.60
2022-12-03T12:11:16.430Z,38.20
2022-12-03T12:12:16.434Z,39.40
2022-12-03T12:13:16.399Z,32.70
2022-12-03T12:14:16.420Z,34.40
2022-12-03T12:15:16.365Z,30.40
2022-12-03T12:16:16.447Z,30.10
2022-12-03T12:17:16.368Z,33.10
2022-12-03T12:18:16.381Z,32.90
2022-12-03T12:19:16.382Z,32.20
2022-12-03T12:20:16.338Z,32.40
2022-12-03T12:21:16.341Z,33.50
2022-12-03T12:22:16.305Z,34.40
2022-12-03T12:23:16.304Z,33.30
2022-12-03T12:24:16.269Z,36.40
2022-12-03T12:25:16.266Z,34.00
2022-12-03T12:26:16.300Z,35.10
2022-12-03T12:27:16.291Z,33.50
2022-12-03T12:28:16.239Z,32.20
2022-12-03T12:29:16.207Z,32.40
2022-12-03T12:30:16.209Z,39.10
2022-12-03T12:31:16.273Z,42.70
2022-12-03T12:32:16.208Z,38.60
2022-12-03T12:33:16.221Z,38.40
2022-12-03T12:34:16.177Z,40.50
2022-12-03T12:35:16.144Z,41.80
2022-12-03T12:36:16.136Z,39.70
2022-12-03T12:37:16.144Z,37.60
2022-12-03T12:38:16.151Z,41.80
2022-12-03T12:39:16.108Z,39.30
2022-12-03T12:40:16.119Z,35.30
2022-12-03T12:41:16.237Z,31.50
2022-12-03T12:42:16.080Z,35.00
2022-12-03T12:43:21.939Z,33.00
2022-12-03T12:44:17.109Z,34.10
2022-12-03T12:45:16.051Z,35.90
2022-12-03T12:46:46.657Z,33.80
2022-12-03T12:47:17.113Z,33.60
2022-12-03T12:48:16.019Z,33.00
2022-12-03T12:49:15.986Z,31.40
2022-12-03T12:50:16.002Z,30.90
2022-12-03T12:51:15.997Z,32.40
2022-12-03T12:52:15.992Z,32.90
2022-12-03T12:53:15.947Z,31.30